Moosonee, Canada
Current Conditions -  °F | °C
As of 3:19 PM on Monday 24 Nov 2014 (Local Time) from CYMO Reporting Station
Light Snow Light Snow  
Wind Chill: 19°   Ceiling: 900
Heat Index: 30°   Visibility: 0.75mi
Dew Point: 28°   Wind: 15mph
Humidity: 93%   Direction: 350°N
Pressure: 28.95"   Gusts: 22mph
Location:  51.27°N, 80.64°W
Report Text: CYMO 242019Z AUTO 35013G19KT 3/4SM -SN VV009 M01/M02 A2895 RMK SLP802
Loading
Personal Weather Stations






























Interactive Weather Map New forecast layout! Learn more

10-Day Weather Forecast

Advertisements
Track Severe Weather on mobile